createdAt,value
2018-12-13T00:00:38.261Z,7.5
2018-12-13T00:01:39.800Z,7.7
2018-12-13T00:02:41.348Z,7.9
2018-12-13T00:03:42.883Z,7.9
2018-12-13T00:04:44.421Z,7.3
2018-12-13T00:05:45.791Z,7.5
2018-12-13T00:06:47.031Z,7.7
2018-12-13T00:07:48.483Z,7.8
2018-12-13T00:08:49.937Z,7.9
2018-12-13T00:09:51.460Z,7.2
2018-12-13T00:10:53.014Z,7.3
2018-12-13T00:11:54.396Z,7.4
2018-12-13T00:12:55.756Z,7.5
2018-12-13T00:13:56.966Z,7.6
2018-12-13T00:14:58.488Z,7.7
2018-12-13T00:16:00.022Z,7.8
2018-12-13T00:17:01.092Z,7.8
2018-12-13T00:18:02.481Z,7.9
2018-12-13T00:19:04.002Z,7.9
2018-12-13T00:20:05.529Z,7.9
2018-12-13T00:21:06.899Z,7.9
2018-12-13T00:22:08.417Z,7.8
2018-12-13T00:23:09.791Z,7.9
2018-12-13T00:24:11.007Z,7.8
2018-12-13T00:25:12.527Z,7.8
2018-12-13T00:26:13.964Z,7.8
2018-12-13T00:27:30.023Z,7.8
2018-12-13T00:28:31.527Z,7.8
2018-12-13T00:29:33.052Z,7.8
2018-12-13T00:30:34.482Z,7.8
2018-12-13T00:31:35.862Z,7.8
2018-12-13T00:32:37.394Z,7.8
2018-12-13T00:33:38.931Z,7.8
2018-12-13T00:34:40.461Z,7.8
2018-12-13T00:35:41.837Z,7.8
2018-12-13T00:36:43.366Z,7.8
2018-12-13T00:37:44.922Z,7.8
2018-12-13T00:38:46.512Z,7.8
2018-12-13T00:39:48.065Z,7.8
2018-12-13T00:40:49.443Z,7.8
2018-12-13T00:41:50.991Z,7.8
2018-12-13T00:42:52.520Z,7.8
2018-12-13T00:43:54.041Z,7.9
2018-12-13T00:44:55.578Z,7.9
2018-12-13T00:45:57.102Z,7.9
2018-12-13T00:46:58.621Z,7.9
2018-12-13T00:48:00.141Z,7.9
2018-12-13T00:49:01.662Z,7.9
2018-12-13T00:50:03.024Z,7.9
2018-12-13T00:51:04.583Z,7.9
2018-12-13T00:52:05.794Z,7.9
2018-12-13T00:53:07.320Z,7.9
2018-12-13T00:54:08.674Z,7.9
2018-12-13T00:55:10.175Z,7.9
2018-12-13T00:56:11.703Z,7.9
2018-12-13T00:57:13.231Z,7.9
2018-12-13T00:58:14.592Z,7.8
2018-12-13T00:59:16.122Z,7.8
2018-12-13T01:00:17.470Z,7.8
2018-12-13T01:01:18.852Z,7.8
2018-12-13T01:02:20.213Z,7.8
2018-12-13T01:03:21.601Z,7.8
2018-12-13T01:04:22.991Z,7.8
2018-12-13T01:05:24.354Z,7.8
2018-12-13T01:06:25.871Z,7.8
2018-12-13T01:07:27.390Z,7.8
2018-12-13T01:08:28.932Z,7.8
2018-12-13T01:09:30.159Z,7.8
2018-12-13T01:10:31.537Z,7.8
2018-12-13T01:11:32.920Z,7.8
2018-12-13T01:12:34.286Z,7.8
2018-12-13T01:13:35.498Z,7.8
2018-12-13T01:14:36.862Z,7.8
2018-12-13T01:15:38.410Z,7.8
2018-12-13T01:16:39.793Z,7.8
2018-12-13T01:17:41.324Z,7.8
2018-12-13T01:18:42.838Z,7.9
2018-12-13T01:19:44.396Z,7.9
2018-12-13T01:20:45.912Z,7.9
2018-12-13T01:21:47.352Z,7.9
2018-12-13T01:22:48.753Z,7.9
2018-12-13T01:23:50.294Z,7.2
2018-12-13T01:24:51.653Z,7.2
2018-12-13T01:25:53.192Z,7.3
2018-12-13T01:26:54.572Z,7.3
2018-12-13T01:27:56.001Z,7.4
2018-12-13T01:28:57.247Z,7.4
2018-12-13T01:29:58.783Z,7.4
2018-12-13T01:31:00.330Z,7.5
2018-12-13T01:32:01.772Z,7.6
2018-12-13T01:33:03.306Z,7.7
2018-12-13T01:34:04.862Z,7.7
2018-12-13T01:35:06.391Z,7.8
2018-12-13T01:36:07.924Z,7.8
2018-12-13T01:37:09.290Z,7.8
2018-12-13T01:38:10.816Z,7.8
2018-12-13T01:39:12.198Z,7.9
2018-12-13T01:40:13.574Z,7.9
2018-12-13T01:41:14.780Z,7.9
2018-12-13T01:42:16.301Z,7.9
2018-12-13T01:43:17.862Z,7.9
2018-12-13T01:44:19.666Z,7.9
2018-12-13T01:45:21.232Z,7.9
2018-12-13T01:46:22.951Z,7.9
2018-12-13T01:47:24.475Z,7.9
2018-12-13T01:48:25.692Z,7.9
2018-12-13T01:49:27.279Z,7.9
2018-12-13T01:50:28.646Z,7.9
2018-12-13T01:51:30.052Z,7.9
2018-12-13T01:52:31.583Z,7.9
2018-12-13T01:53:32.935Z,7.9
2018-12-13T01:54:34.304Z,7.9
2018-12-13T01:55:35.521Z,7.9
2018-12-13T01:56:36.736Z,7.8
2018-12-13T01:57:37.862Z,7.8
2018-12-13T01:58:39.393Z,7.8
2018-12-13T01:59:40.916Z,7.8
2018-12-13T02:00:41.995Z,7.8
2018-12-13T02:01:43.513Z,7.8
2018-12-13T02:02:44.898Z,7.8
2018-12-13T02:03:46.412Z,7.8
2018-12-13T02:04:47.772Z,7.7
2018-12-13T02:05:49.131Z,7.6
2018-12-13T02:06:50.516Z,7.4
2018-12-13T02:07:51.891Z,7.3
2018-12-13T02:08:53.263Z,7.1
2018-12-13T02:09:54.796Z,7.1
2018-12-13T02:10:56.343Z,7.1
2018-12-13T02:11:57.862Z,7.1
2018-12-13T02:12:59.392Z,7.2
2018-12-13T02:14:00.902Z,7.2
2018-12-13T02:15:02.263Z,7.2
2018-12-13T02:16:03.631Z,7.2
2018-12-13T02:17:04.999Z,7.2
2018-12-13T02:18:06.330Z,7.2
2018-12-13T02:19:07.693Z,7.1
2018-12-13T02:20:09.216Z,7.2
2018-12-13T02:21:10.753Z,7.2
2018-12-13T02:22:12.284Z,7.2
2018-12-13T02:23:13.817Z,7.2
2018-12-13T02:24:15.177Z,7.2
2018-12-13T02:25:16.542Z,7.2
2018-12-13T02:26:18.084Z,7.1
2018-12-13T02:27:19.603Z,7.2
2018-12-13T02:28:21.103Z,7.2
2018-12-13T02:29:22.517Z,7.2
2018-12-13T02:30:23.925Z,7.1
2018-12-13T02:31:25.462Z,7.1
2018-12-13T02:32:26.845Z,7.1
2018-12-13T02:33:28.360Z,7.1
2018-12-13T02:34:29.713Z,7.1
2018-12-13T02:35:31.246Z,7.1
2018-12-13T02:36:32.645Z,7.1
2018-12-13T02:37:34.055Z,7.1
2018-12-13T02:38:35.581Z,7.1
2018-12-13T02:39:37.119Z,7.1
2018-12-13T02:40:38.669Z,7.1
2018-12-13T02:41:40.044Z,7.1
2018-12-13T02:42:41.615Z,7.1
2018-12-13T02:43:43.183Z,7.1
2018-12-13T02:44:44.563Z,7.1
2018-12-13T02:45:45.942Z,7.1
2018-12-13T02:46:47.471Z,7.1
2018-12-13T02:47:48.838Z,7.1
2018-12-13T02:48:50.222Z,7.1
2018-12-13T02:49:51.590Z,7.1
2018-12-13T02:50:52.977Z,7.2
2018-12-13T02:51:54.211Z,7.2
2018-12-13T02:52:55.732Z,7.2
2018-12-13T02:53:57.302Z,7.2
2018-12-13T02:54:58.519Z,7.2
2018-12-13T02:55:59.897Z,7.2
2018-12-13T02:57:01.268Z,7.2
2018-12-13T02:58:02.639Z,7.2
2018-12-13T02:59:04.002Z,7.2
2018-12-13T03:00:05.520Z,7.2
2018-12-13T03:01:07.046Z,7.2
2018-12-13T03:02:08.574Z,7.3
2018-12-13T03:03:09.935Z,7.3
2018-12-13T03:04:11.318Z,7.4
2018-12-13T03:05:12.713Z,7.5
2018-12-13T03:06:14.267Z,7.6
2018-12-13T03:07:15.940Z,7.8
2018-12-13T03:08:17.317Z,7.9
2018-12-13T03:09:18.844Z,7.9
2018-12-13T03:10:20.414Z,7.9
2018-12-13T03:11:21.793Z,7.6
2018-12-13T03:12:23.166Z,7.8
2018-12-13T03:13:24.533Z,7.9
2018-12-13T03:14:25.959Z,7.9
2018-12-13T03:15:27.232Z,7.3
2018-12-13T03:16:28.753Z,7.4
2018-12-13T03:17:30.003Z,7.5
2018-12-13T03:18:31.223Z,7.6
2018-12-13T03:19:32.743Z,7.6
2018-12-13T03:20:33.988Z,7.7
2018-12-13T03:21:35.203Z,7.7
2018-12-13T03:22:36.569Z,7.7
2018-12-13T03:23:38.113Z,7.7
2018-12-13T03:24:39.680Z,7.7
2018-12-13T03:25:41.067Z,7.8
2018-12-13T03:26:42.445Z,7.8
2018-12-13T03:27:44.039Z,7.8
2018-12-13T03:28:45.443Z,7.8
2018-12-13T03:29:46.819Z,7.7
2018-12-13T03:30:48.120Z,7.7
2018-12-13T03:31:49.398Z,7.7
2018-12-13T03:32:50.952Z,7.6
2018-12-13T03:33:52.353Z,7.5
2018-12-13T03:34:53.722Z,7.5
2018-12-13T03:35:55.266Z,7.5
2018-12-13T03:36:56.814Z,7.5
2018-12-13T03:37:58.364Z,7.5
2018-12-13T03:38:59.901Z,7.6
2018-12-13T03:40:01.411Z,7.7
2018-12-13T03:41:02.943Z,7.7
2018-12-13T03:42:04.353Z,7.8
2018-12-13T03:43:05.906Z,7.9
2018-12-13T03:44:07.135Z,7.9
2018-12-13T03:45:08.675Z,7.8
2018-12-13T03:46:10.053Z,7.8
2018-12-13T03:47:11.573Z,7.8
2018-12-13T03:48:13.141Z,7.8
2018-12-13T03:49:14.791Z,7.8
2018-12-13T03:50:16.335Z,7.8
2018-12-13T03:51:17.871Z,7.8
2018-12-13T03:52:19.102Z,7.9
2018-12-13T03:53:20.627Z,7.9
2018-12-13T03:54:22.152Z,7.9
2018-12-13T03:55:23.681Z,7.2
2018-12-13T03:56:25.232Z,7.3
2018-12-13T03:57:26.711Z,7.3
2018-12-13T03:58:28.075Z,7.3
2018-12-13T03:59:29.614Z,7.3
2018-12-13T04:00:31.202Z,7.3
2018-12-13T04:01:32.753Z,7.3
2018-12-13T04:02:34.307Z,7.2
2018-12-13T04:03:35.863Z,7.2
2018-12-13T04:04:37.242Z,7.2
2018-12-13T04:05:38.766Z,7.2
2018-12-13T04:06:40.143Z,7.2
2018-12-13T04:07:41.664Z,7.2
2018-12-13T04:08:43.199Z,7.2
2018-12-13T04:09:44.724Z,7.2
2018-12-13T04:10:46.267Z,7.2
2018-12-13T04:11:47.794Z,7.2
2018-12-13T04:12:49.325Z,7.2
2018-12-13T04:13:50.869Z,7.2
2018-12-13T04:14:52.413Z,7.2
2018-12-13T04:15:53.934Z,7.2
2018-12-13T04:16:55.315Z,7.2
2018-12-13T04:17:56.853Z,7.2
2018-12-13T04:18:58.420Z,7.2
2018-12-13T04:19:59.804Z,7.1
2018-12-13T04:21:01.039Z,7.2
2018-12-13T04:22:02.623Z,7.1
2018-12-13T04:23:04.013Z,7.1
2018-12-13T04:24:05.411Z,7.1
2018-12-13T04:25:06.786Z,7.2
2018-12-13T04:26:08.005Z,7.2
2018-12-13T04:27:09.544Z,7.2
2018-12-13T04:28:11.082Z,7.2
2018-12-13T04:29:12.462Z,7.2
2018-12-13T04:30:14.002Z,7.2
2018-12-13T04:31:15.530Z,7.2
2018-12-13T04:32:17.062Z,7.2
2018-12-13T04:33:18.602Z,7.3
2018-12-13T04:34:20.129Z,7.3
2018-12-13T04:35:21.667Z,7.4
2018-12-13T04:36:23.313Z,7.5
2018-12-13T04:37:24.860Z,7.7
2018-12-13T04:38:26.265Z,7.8
2018-12-13T04:39:27.814Z,7.9
2018-12-13T04:40:29.349Z,7.9
2018-12-13T04:41:30.728Z,7.5
2018-12-13T04:42:32.754Z,7.6
2018-12-13T04:43:34.297Z,7.7
2018-12-13T04:44:35.366Z,7.8
2018-12-13T04:45:36.750Z,7.8
2018-12-13T04:46:37.973Z,7.9
2018-12-13T04:47:39.352Z,7.9
2018-12-13T04:48:40.454Z,7.9
2018-12-13T04:49:41.997Z,7.9
2018-12-13T04:50:43.528Z,7.9
2018-12-13T04:51:45.085Z,7.9
2018-12-13T04:52:46.607Z,7.9
2018-12-13T04:53:48.011Z,7.9
2018-12-13T04:54:49.530Z,7.9
2018-12-13T04:55:51.061Z,7.9
2018-12-13T04:56:52.573Z,7.9
2018-12-13T04:57:53.939Z,7.9
2018-12-13T04:58:55.363Z,7.9
2018-12-13T04:59:56.722Z,7.8
2018-12-13T05:00:58.245Z,7.8
2018-12-13T05:01:59.774Z,7.9
2018-12-13T05:03:01.005Z,7.9
2018-12-13T05:04:02.527Z,7.9
2018-12-13T05:05:04.062Z,7.9
2018-12-13T05:06:05.405Z,7.9
2018-12-13T05:07:06.951Z,7.9
2018-12-13T05:08:08.490Z,7.9
2018-12-13T05:09:09.897Z,7.9
2018-12-13T05:10:11.103Z,7.8
2018-12-13T05:11:12.630Z,7.9
2018-12-13T05:12:14.036Z,7.9
2018-12-13T05:13:15.414Z,7.9
2018-12-13T05:14:16.620Z,7.9
2018-12-13T05:15:17.834Z,7.9
2018-12-13T05:16:19.365Z,7.9
2018-12-13T05:17:20.890Z,7.9
2018-12-13T05:18:22.325Z,7.9
2018-12-13T05:19:23.845Z,7.7
2018-12-13T05:20:25.361Z,7.7
2018-12-13T05:21:26.901Z,7.8
2018-12-13T05:22:28.447Z,7.8
2018-12-13T05:23:29.987Z,7.8
2018-12-13T05:24:31.513Z,7.9
2018-12-13T05:25:33.116Z,7.9
2018-12-13T05:26:34.656Z,7.9
2018-12-13T05:27:36.203Z,7.9
2018-12-13T05:28:37.611Z,7.2
2018-12-13T05:29:39.169Z,7.3
2018-12-13T05:30:40.697Z,7.3
2018-12-13T05:31:42.243Z,7.3
2018-12-13T05:32:43.936Z,7.4
2018-12-13T05:33:45.492Z,7.4
2018-12-13T05:34:46.893Z,7.4
2018-12-13T05:35:48.449Z,7.4
2018-12-13T05:36:49.991Z,7.3
2018-12-13T05:37:51.381Z,7.4
2018-12-13T05:38:52.773Z,7.4
2018-12-13T05:39:54.166Z,7.4
2018-12-13T05:40:55.473Z,7.4
2018-12-13T05:41:57.057Z,7.5
2018-12-13T05:42:58.591Z,7.6
2018-12-13T05:44:00.139Z,7.6
2018-12-13T05:45:01.679Z,7.6
2018-12-13T05:46:03.200Z,7.7
2018-12-13T05:47:04.443Z,7.7
2018-12-13T05:48:05.827Z,7.7
2018-12-13T05:49:07.191Z,7.7
2018-12-13T05:50:08.569Z,7.7
2018-12-13T05:51:10.112Z,7.7
2018-12-13T05:52:11.661Z,7.7
2018-12-13T05:53:13.204Z,7.6
2018-12-13T05:54:14.437Z,7.6
2018-12-13T05:55:15.971Z,7.5
2018-12-13T05:56:17.384Z,7.4
2018-12-13T05:57:18.927Z,7.4
2018-12-13T05:58:20.445Z,7.3
2018-12-13T05:59:21.991Z,7.2
2018-12-13T06:00:23.519Z,7.2
2018-12-13T06:01:24.904Z,7.2
2018-12-13T06:02:26.461Z,7.2
2018-12-13T06:03:27.841Z,7.2
2018-12-13T06:04:29.381Z,7.2
2018-12-13T06:05:30.895Z,7.2
2018-12-13T06:06:32.274Z,7.2
2018-12-13T06:07:34.009Z,7.2
2018-12-13T06:08:35.569Z,7.2
2018-12-13T06:09:36.801Z,7.2
2018-12-13T06:10:38.318Z,7.2
2018-12-13T06:11:39.841Z,7.2
2018-12-13T06:12:41.062Z,7.2
2018-12-13T06:13:42.431Z,7.2
2018-12-13T06:14:43.799Z,7.2
2018-12-13T06:15:45.381Z,7.2
2018-12-13T06:16:46.766Z,7.2
2018-12-13T06:17:48.321Z,7.2
2018-12-13T06:18:49.872Z,7.2
2018-12-13T06:19:51.317Z,7.2
2018-12-13T06:20:52.694Z,7.2
2018-12-13T06:21:54.243Z,7.2
2018-12-13T06:22:55.632Z,7.2
2018-12-13T06:23:57.174Z,7.3
2018-12-13T06:24:58.550Z,7.3
2018-12-13T06:25:59.915Z,7.4
2018-12-13T06:27:01.428Z,7.5
2018-12-13T06:28:02.986Z,7.6
2018-12-13T06:29:04.354Z,7.7
2018-12-13T06:30:09.090Z,7.8
2018-12-13T06:31:10.470Z,7.9
2018-12-13T06:32:12.002Z,7.9
2018-12-13T06:33:13.534Z,7.9
2018-12-13T06:34:14.754Z,7.9
2018-12-13T06:35:16.332Z,7.9
2018-12-13T06:36:17.712Z,7.9
2018-12-13T06:37:19.248Z,7.9
2018-12-13T06:38:20.774Z,7.9
2018-12-13T06:39:22.317Z,7.9
2018-12-13T06:40:23.676Z,7.8
2018-12-13T06:41:25.046Z,7.9
2018-12-13T06:42:26.582Z,7.9
2018-12-13T06:43:27.787Z,7.9
2018-12-13T06:44:29.006Z,7.9
2018-12-13T06:45:30.372Z,7.9
2018-12-13T06:46:31.733Z,7.9
2018-12-13T06:47:33.274Z,7.9
2018-12-13T06:48:34.682Z,7.9
2018-12-13T06:49:36.209Z,7.9
2018-12-13T06:50:37.584Z,7.8
2018-12-13T06:51:39.114Z,7.8
2018-12-13T06:52:40.488Z,7.8
2018-12-13T06:53:42.052Z,7.8
2018-12-13T06:54:43.586Z,7.8
2018-12-13T06:55:45.114Z,7.8
2018-12-13T06:56:46.694Z,7.8
2018-12-13T06:57:48.245Z,7.7
2018-12-13T06:58:49.681Z,7.7
2018-12-13T06:59:51.096Z,7.7
2018-12-13T07:00:52.651Z,7.6
2018-12-13T07:01:54.032Z,7.6
2018-12-13T07:02:55.572Z,7.6
2018-12-13T07:03:56.973Z,7.6
2018-12-13T07:04:58.525Z,7.6
2018-12-13T07:05:59.756Z,7.6
2018-12-13T07:07:01.121Z,7.6
2018-12-13T07:08:09.351Z,7.5
2018-12-13T07:09:10.604Z,7.5
2018-12-13T07:10:12.133Z,7.4
2018-12-13T07:11:13.679Z,7.4
2018-12-13T07:12:15.217Z,7.3
2018-12-13T07:13:16.746Z,7.2
2018-12-13T07:14:17.973Z,7.2
2018-12-13T07:15:19.527Z,7.2
2018-12-13T07:16:21.063Z,7.2
2018-12-13T07:17:22.619Z,7.2
2018-12-13T07:18:23.992Z,7.2
2018-12-13T07:19:25.221Z,7.3
2018-12-13T07:20:27.836Z,7.3
2018-12-13T07:21:29.211Z,7.3
2018-12-13T07:22:30.590Z,7.3
2018-12-13T07:23:32.141Z,7.4
2018-12-13T07:24:33.515Z,7.4
2018-12-13T07:25:35.059Z,7.5
2018-12-13T07:26:36.420Z,7.6
2018-12-13T07:27:37.786Z,7.6
2018-12-13T07:28:39.149Z,7.6
2018-12-13T07:29:40.532Z,7.6
2018-12-13T07:30:41.931Z,7.6
2018-12-13T07:31:43.455Z,7.5
2018-12-13T07:32:44.670Z,7.4
2018-12-13T07:33:47.348Z,7.3
2018-12-13T07:34:48.723Z,7.2
2018-12-13T07:35:50.093Z,7.2
2018-12-13T07:36:51.503Z,7.1
2018-12-13T07:37:52.888Z,7.2
2018-12-13T07:38:54.244Z,7.2
2018-12-13T07:39:55.793Z,7.2
2018-12-13T07:40:57.162Z,7.2
2018-12-13T07:41:58.691Z,7.1
2018-12-13T07:43:00.067Z,7.1
2018-12-13T07:44:01.286Z,7.1
2018-12-13T07:45:03.544Z,7.1
2018-12-13T07:46:04.913Z,7.2
2018-12-13T07:47:06.286Z,7.1
2018-12-13T07:48:07.834Z,7.1
2018-12-13T07:49:09.358Z,7.1
2018-12-13T07:50:10.745Z,7.2
2018-12-13T07:51:12.273Z,7.2
2018-12-13T07:52:13.653Z,7.1
2018-12-13T07:53:15.053Z,7.2
2018-12-13T07:54:16.593Z,7.2
2018-12-13T07:55:17.963Z,7.2
2018-12-13T07:56:19.533Z,7.2
2018-12-13T07:57:21.053Z,7.2
2018-12-13T07:58:22.422Z,7.2
2018-12-13T07:59:23.956Z,7.3
2018-12-13T08:00:25.515Z,7.3
2018-12-13T08:01:26.905Z,7.4
2018-12-13T08:02:28.475Z,7.5
2018-12-13T08:03:29.687Z,7.6
2018-12-13T08:04:31.214Z,7.6
2018-12-13T08:05:32.752Z,7.7
2018-12-13T08:06:34.133Z,7.7
2018-12-13T08:07:37.001Z,7.8
2018-12-13T08:08:38.363Z,7.8
2018-12-13T08:09:39.901Z,7.8
2018-12-13T08:10:41.123Z,7.8
2018-12-13T08:11:42.502Z,7.8
2018-12-13T08:12:43.890Z,7.7
2018-12-13T08:13:45.410Z,7.7
2018-12-13T08:14:46.938Z,7.7
2018-12-13T08:15:48.300Z,7.7
2018-12-13T08:16:49.820Z,7.6
2018-12-13T08:17:51.346Z,7.6
2018-12-13T08:18:52.719Z,7.6
2018-12-13T08:19:54.077Z,7.6
2018-12-13T08:20:55.595Z,7.6
2018-12-13T08:21:56.974Z,7.5
2018-12-13T08:22:58.373Z,7.5
2018-12-13T08:23:59.917Z,7.5
2018-12-13T08:25:01.479Z,7.5
2018-12-13T08:26:02.894Z,7.5
2018-12-13T08:27:04.420Z,7.5
2018-12-13T08:28:05.938Z,7.5
2018-12-13T08:29:07.469Z,7.5
2018-12-13T08:30:09.012Z,7.6
2018-12-13T08:31:10.553Z,7.6
2018-12-13T08:32:12.098Z,7.7
2018-12-13T08:33:13.625Z,7.8
2018-12-13T08:34:14.535Z,7.8
2018-12-13T08:35:16.073Z,7.9
2018-12-13T08:36:17.583Z,7.9
2018-12-13T08:37:19.112Z,7.9
2018-12-13T08:38:27.029Z,7.6
2018-12-13T08:39:28.755Z,7.7
2018-12-13T08:40:29.981Z,7.8
2018-12-13T08:41:31.557Z,7.9
2018-12-13T08:42:32.917Z,7.9
2018-12-13T08:43:34.502Z,7.9
2018-12-13T08:44:35.884Z,7.9
2018-12-13T08:45:37.441Z,7.9
2018-12-13T08:46:38.823Z,7.9
2018-12-13T08:47:40.383Z,7.9
2018-12-13T08:48:41.996Z,7.8
2018-12-13T08:49:43.379Z,7.8
2018-12-13T08:50:44.763Z,7.8
2018-12-13T08:51:46.304Z,7.8
2018-12-13T08:52:47.826Z,7.8
2018-12-13T08:53:49.359Z,7.8
2018-12-13T08:54:50.607Z,7.8
2018-12-13T08:55:51.676Z,7.8
2018-12-13T08:56:53.054Z,7.7
2018-12-13T08:57:54.423Z,7.7
2018-12-13T08:58:55.824Z,7.8
2018-12-13T08:59:57.363Z,7.8
2018-12-13T09:00:58.891Z,7.8
2018-12-13T09:02:00.452Z,7.9
2018-12-13T09:03:02.004Z,7.9
2018-12-13T09:04:03.372Z,7.9
2018-12-13T09:05:04.909Z,7.9
2018-12-13T09:06:06.133Z,7.8
2018-12-13T09:07:07.522Z,7.8
2018-12-13T09:08:09.074Z,7.7
2018-12-13T09:09:10.444Z,7.7
2018-12-13T09:10:11.996Z,7.6
2018-12-13T09:11:13.224Z,7.5
2018-12-13T09:12:14.772Z,7.4
2018-12-13T09:13:16.173Z,7.3
2018-12-13T09:14:17.718Z,7.2
2018-12-13T09:15:20.712Z,7.2
2018-12-13T09:16:22.248Z,7.2
2018-12-13T09:17:23.629Z,7.2
2018-12-13T09:18:25.026Z,7.2
2018-12-13T09:19:26.588Z,7.2
2018-12-13T09:20:27.980Z,7.2
2018-12-13T09:21:29.525Z,7.2
2018-12-13T09:22:30.916Z,7.2
2018-12-13T09:23:32.121Z,7.2
2018-12-13T09:24:33.677Z,7.2
2018-12-13T09:25:35.077Z,7.2
2018-12-13T09:26:36.476Z,7.2
2018-12-13T09:27:37.995Z,7.2
2018-12-13T09:28:39.582Z,7.2
2018-12-13T09:29:41.108Z,7.2
2018-12-13T09:30:42.656Z,7.2
2018-12-13T09:31:44.024Z,7.3
2018-12-13T09:32:45.551Z,7.3
2018-12-13T09:33:47.094Z,7.4
2018-12-13T09:34:48.474Z,7.4
2018-12-13T09:35:50.022Z,7.5
2018-12-13T09:36:51.640Z,7.5
2018-12-13T09:37:53.014Z,7.6
2018-12-13T09:38:54.568Z,7.6
2018-12-13T09:39:56.094Z,7.6
2018-12-13T09:40:57.484Z,7.5
2018-12-13T09:41:58.998Z,7.5
2018-12-13T09:43:00.514Z,7.5
2018-12-13T09:44:01.894Z,7.5
2018-12-13T09:45:03.286Z,7.4
2018-12-13T09:46:04.658Z,7.4
2018-12-13T09:47:06.204Z,7.3
2018-12-13T09:48:07.423Z,7.3
2018-12-13T09:49:08.816Z,7.3
2018-12-13T09:50:10.368Z,7.3
2018-12-13T09:51:11.913Z,7.2
2018-12-13T09:52:13.300Z,7.2
2018-12-13T09:53:14.831Z,7.2
2018-12-13T09:54:16.044Z,7.2
2018-12-13T09:55:17.583Z,7.2
2018-12-13T09:56:19.122Z,7.3
2018-12-13T09:57:20.640Z,7.3
2018-12-13T09:58:22.206Z,7.4
2018-12-13T09:59:24.927Z,7.4
2018-12-13T10:00:26.464Z,7.5
2018-12-13T10:01:28.001Z,7.6
2018-12-13T10:02:29.404Z,7.7
2018-12-13T10:03:30.784Z,7.7
2018-12-13T10:04:32.303Z,7.8
2018-12-13T10:05:33.841Z,7.9
2018-12-13T10:06:35.425Z,7.9
2018-12-13T10:07:36.959Z,7.9
2018-12-13T10:08:38.490Z,7.9
2018-12-13T10:09:39.858Z,7.9
2018-12-13T10:10:41.223Z,7.9
2018-12-13T10:11:43.525Z,7.9
2018-12-13T10:12:45.065Z,7.9
2018-12-13T10:13:46.446Z,7.9
2018-12-13T10:14:47.829Z,7.9
2018-12-13T10:15:49.373Z,7.6
2018-12-13T10:16:50.917Z,7.8
2018-12-13T10:17:52.501Z,7.9
2018-12-13T10:18:54.061Z,7.9
2018-12-13T10:19:55.604Z,7.9
2018-12-13T10:20:56.999Z,7.6
2018-12-13T10:21:58.546Z,7.7
2018-12-13T10:23:00.133Z,7.8
2018-12-13T10:24:01.536Z,7.8
2018-12-13T10:25:03.093Z,7.7
2018-12-13T10:26:04.474Z,7.7
2018-12-13T10:27:06.008Z,7.7
2018-12-13T10:28:07.545Z,7.7
2018-12-13T10:29:09.358Z,7.7
2018-12-13T10:30:10.943Z,7.8
2018-12-13T10:31:12.485Z,7.8
2018-12-13T10:32:14.048Z,7.9
2018-12-13T10:33:15.424Z,7.9
2018-12-13T10:34:16.968Z,7.9
2018-12-13T10:35:18.509Z,7.9
2018-12-13T10:36:19.758Z,7.9
2018-12-13T10:37:21.154Z,7.9
2018-12-13T10:38:22.701Z,7.9
2018-12-13T10:39:24.096Z,7.9
2018-12-13T10:40:25.340Z,7.8
2018-12-13T10:41:28.210Z,7.8
2018-12-13T10:42:29.755Z,7.8
2018-12-13T10:43:31.146Z,7.8
2018-12-13T10:44:32.535Z,7.6
2018-12-13T10:45:34.065Z,7.7
2018-12-13T10:46:35.451Z,7.6
2018-12-13T10:47:36.838Z,7.6
2018-12-13T10:48:38.204Z,7.5
2018-12-13T10:49:39.750Z,7.4
2018-12-13T10:50:41.296Z,7.2
2018-12-13T10:51:42.830Z,7.2
2018-12-13T10:52:44.267Z,7.1
2018-12-13T10:53:45.653Z,7.2
2018-12-13T10:54:47.196Z,7.2
2018-12-13T10:55:48.723Z,7.1
2018-12-13T10:56:50.271Z,7.2
2018-12-13T10:57:51.808Z,7.2
2018-12-13T10:58:53.184Z,7.1
2018-12-13T10:59:54.737Z,7.2
2018-12-13T11:00:56.274Z,7.1
2018-12-13T11:01:57.863Z,7.1
2018-12-13T11:02:58.945Z,7.1
2018-12-13T11:04:00.321Z,7.1
2018-12-13T11:05:01.882Z,7.1
2018-12-13T11:06:03.443Z,7.2
2018-12-13T11:07:04.815Z,7.2
2018-12-13T11:08:06.349Z,7.2
2018-12-13T11:09:07.883Z,7.2
2018-12-13T11:10:09.671Z,7.2
2018-12-13T11:11:11.476Z,7.2
2018-12-13T11:12:13.027Z,7.2
2018-12-13T11:13:14.441Z,7.2
2018-12-13T11:14:15.974Z,7.3
2018-12-13T11:15:17.521Z,7.3
2018-12-13T11:16:19.064Z,7.3
2018-12-13T11:17:20.601Z,7.4
2018-12-13T11:18:22.151Z,7.5
2018-12-13T11:19:23.697Z,7.6
2018-12-13T11:20:25.236Z,7.7
2018-12-13T11:21:26.815Z,7.7
2018-12-13T11:22:28.367Z,7.8
2018-12-13T11:23:29.748Z,7.9
2018-12-13T11:24:31.284Z,7.9
2018-12-13T11:25:32.825Z,7.9
2018-12-13T11:26:34.379Z,7.9
2018-12-13T11:27:35.771Z,7.9
2018-12-13T11:28:37.325Z,7.9
2018-12-13T11:29:38.854Z,7.9
2018-12-13T11:30:40.416Z,7.9
2018-12-13T11:31:41.648Z,7.9
2018-12-13T11:32:43.031Z,7.9
2018-12-13T11:33:44.419Z,7.9
2018-12-13T11:34:45.818Z,7.9
2018-12-13T11:35:47.374Z,7.9
2018-12-13T11:36:48.934Z,7.9
2018-12-13T11:37:50.491Z,7.9
2018-12-13T11:38:52.073Z,7.9
2018-12-13T11:39:53.612Z,7.9
2018-12-13T11:40:54.983Z,7.9
2018-12-13T11:41:56.383Z,7.9
2018-12-13T11:42:57.603Z,7.9
2018-12-13T11:43:59.143Z,7.9
2018-12-13T11:45:00.362Z,7.9
2018-12-13T11:46:01.902Z,7.9
2018-12-13T11:47:03.440Z,7.9
2018-12-13T11:48:04.815Z,7.9
2018-12-13T11:49:12.755Z,7.8
2018-12-13T11:50:14.509Z,7.9
2018-12-13T11:51:16.027Z,7.9
2018-12-13T11:52:17.394Z,7.9
2018-12-13T11:53:18.797Z,7.9
2018-12-13T11:54:20.340Z,7.9
2018-12-13T11:55:21.715Z,7.9
2018-12-13T11:56:23.082Z,7.9
2018-12-13T11:57:24.341Z,7.9
2018-12-13T11:58:25.570Z,7.9
2018-12-13T11:59:26.685Z,7.9
2018-12-13T12:00:28.067Z,7.9
2018-12-13T12:01:29.620Z,7.9
2018-12-13T12:02:31.005Z,7.9
2018-12-13T12:03:32.475Z,7.9
2018-12-13T12:04:33.893Z,7.9
2018-12-13T12:05:35.469Z,7.9
2018-12-13T12:06:37.025Z,7.9
2018-12-13T12:07:38.387Z,7.9
2018-12-13T12:08:39.640Z,7.9
2018-12-13T12:09:41.040Z,7.9
2018-12-13T12:10:42.430Z,7.1
2018-12-13T12:11:43.657Z,7.3
2018-12-13T12:12:45.211Z,7.4
2018-12-13T12:13:46.808Z,7.5
2018-12-13T12:14:48.217Z,7.5
2018-12-13T12:15:49.750Z,7.5
2018-12-13T12:16:51.119Z,7.6
2018-12-13T12:17:52.685Z,7.5
2018-12-13T12:18:53.909Z,7.4
2018-12-13T12:19:55.174Z,7.3
2018-12-13T12:20:56.714Z,7.2
2018-12-13T12:21:58.101Z,7.2
2018-12-13T12:22:59.493Z,7.1
2018-12-13T12:24:01.046Z,7.1
2018-12-13T12:25:02.588Z,7.1
2018-12-13T12:26:03.953Z,7.1
2018-12-13T12:27:05.197Z,7.1
2018-12-13T12:28:06.832Z,7.1
2018-12-13T12:29:08.387Z,7.1
2018-12-13T12:30:09.843Z,7.1
2018-12-13T12:31:10.920Z,7.1
2018-12-13T12:32:12.460Z,7.1
2018-12-13T12:33:14.006Z,7.1
2018-12-13T12:34:15.551Z,7.1
2018-12-13T12:35:17.079Z,7.1
2018-12-13T12:36:18.445Z,7.1
2018-12-13T12:37:19.971Z,7.1
2018-12-13T12:38:21.512Z,7.2
2018-12-13T12:39:23.052Z,7.2
2018-12-13T12:40:24.600Z,7.2
2018-12-13T12:41:26.047Z,7.2
2018-12-13T12:42:27.590Z,7.2
2018-12-13T12:43:28.983Z,7.2
2018-12-13T12:44:30.363Z,7.3
2018-12-13T12:45:31.913Z,7.4
2018-12-13T12:46:33.472Z,7.5
2018-12-13T12:47:34.563Z,7.6
2018-12-13T12:48:35.805Z,7.7
2018-12-13T12:49:37.334Z,7.8
2018-12-13T12:50:38.900Z,7.9
2018-12-13T12:51:40.337Z,7.9
2018-12-13T12:52:41.911Z,7.9
2018-12-13T12:53:43.465Z,7.9
2018-12-13T12:54:44.533Z,7.3
2018-12-13T12:55:46.062Z,7.5
2018-12-13T12:56:47.586Z,7.7
2018-12-13T12:57:49.126Z,7.9
2018-12-13T12:58:50.679Z,7.9
2018-12-13T12:59:51.927Z,7.9
2018-12-13T13:00:53.511Z,7.9
2018-12-13T13:01:55.152Z,7.9
2018-12-13T13:02:56.681Z,7.9
2018-12-13T13:03:58.260Z,7.9
2018-12-13T13:04:59.649Z,7.6
2018-12-13T13:06:00.903Z,7.7
2018-12-13T13:07:02.126Z,7.8
2018-12-13T13:08:03.669Z,7.9
2018-12-13T13:09:05.237Z,7.9
2018-12-13T13:10:06.807Z,7.9
2018-12-13T13:11:08.236Z,7.9
2018-12-13T13:12:09.793Z,7.9
2018-12-13T13:13:11.073Z,7.9
2018-12-13T13:14:12.663Z,7.9
2018-12-13T13:15:13.759Z,7.9
2018-12-13T13:16:14.998Z,7.9
2018-12-13T13:17:16.407Z,7.9
2018-12-13T13:18:17.973Z,7.9
2018-12-13T13:19:19.553Z,7.9
2018-12-13T13:20:21.119Z,7.9
2018-12-13T13:21:22.679Z,7.9
2018-12-13T13:22:24.241Z,7.9
2018-12-13T13:23:25.798Z,7.9
2018-12-13T13:24:27.369Z,7.9
2018-12-13T13:25:28.947Z,7.9
2018-12-13T13:26:30.529Z,7.9
2018-12-13T13:27:31.921Z,7.9
2018-12-13T13:28:33.292Z,7.9
2018-12-13T13:29:34.895Z,7.9
2018-12-13T13:30:36.273Z,7.9
2018-12-13T13:31:37.438Z,7.9
2018-12-13T13:32:39.044Z,7.8
2018-12-13T13:33:40.591Z,7.8
2018-12-13T13:34:41.963Z,7.8
2018-12-13T13:35:43.535Z,7.8
2018-12-13T13:36:45.091Z,7.8
2018-12-13T13:37:46.621Z,7.8
2018-12-13T13:38:48.171Z,7.8
2018-12-13T13:39:49.582Z,7.8
2018-12-13T13:40:51.382Z,7.7
2018-12-13T13:41:52.775Z,7.7
2018-12-13T13:42:54.307Z,7.6
2018-12-13T13:43:55.856Z,7.6
2018-12-13T13:44:57.393Z,7.6
2018-12-13T13:45:58.923Z,7.5
2018-12-13T13:47:00.316Z,7.5
2018-12-13T13:48:01.885Z,7.5
2018-12-13T13:49:03.133Z,7.5
2018-12-13T13:50:04.704Z,7.5
2018-12-13T13:51:06.154Z,7.5
2018-12-13T13:52:09.323Z,7.4
2018-12-13T13:53:11.008Z,7.4
2018-12-13T13:54:12.585Z,7.3
2018-12-13T13:55:14.113Z,7.2
2018-12-13T13:56:15.705Z,7.2
2018-12-13T13:57:16.955Z,7.2
2018-12-13T13:58:18.354Z,7.2
2018-12-13T13:59:19.892Z,7.2
2018-12-13T14:00:21.456Z,7.1
2018-12-13T14:01:22.861Z,7.1
2018-12-13T14:02:24.405Z,7.1
2018-12-13T14:03:25.967Z,7.1
2018-12-13T14:04:27.534Z,7.1
2018-12-13T14:05:29.063Z,7.1
2018-12-13T14:06:30.629Z,7.1
2018-12-13T14:07:32.263Z,7.1